createdAt,value
2023-05-08T00:00:05.175Z,1.90
2023-05-08T00:02:33.686Z,1.60
2023-05-08T00:05:02.090Z,0.98
2023-05-08T00:07:30.500Z,1.63
2023-05-08T00:10:00.213Z,1.13
2023-05-08T00:12:28.747Z,1.55
2023-05-08T00:14:57.067Z,2.05
2023-05-08T00:17:25.506Z,1.80
2023-05-08T00:19:54.016Z,1.27
2023-05-08T00:22:22.540Z,2.10
2023-05-08T00:24:50.859Z,2.08
2023-05-08T00:27:20.734Z,2.25
2023-05-08T00:29:50.280Z,1.52
2023-05-08T00:32:18.746Z,1.52
2023-05-08T00:34:47.082Z,1.30
2023-05-08T00:37:15.400Z,1.67
2023-05-08T00:39:43.690Z,1.42
2023-05-08T00:42:12.034Z,1.00
2023-05-08T00:44:41.713Z,1.30
2023-05-08T00:47:10.440Z,1.45
2023-05-08T00:49:38.819Z,1.70
2023-05-08T00:52:08.592Z,1.67
2023-05-08T00:54:37.450Z,1.50
2023-05-08T00:57:06.734Z,1.35
2023-05-08T00:59:35.532Z,1.33
2023-05-08T01:02:06.103Z,2.22
2023-05-08T01:04:35.892Z,1.30
2023-05-08T01:07:04.593Z,2.08
2023-05-08T01:09:33.014Z,1.63
2023-05-08T01:12:05.487Z,1.85
2023-05-08T01:14:38.877Z,1.38
2023-05-08T01:17:11.825Z,1.17
2023-05-08T01:19:51.400Z,1.30
2023-05-08T01:22:25.233Z,2.08
2023-05-08T01:25:04.339Z,1.90
2023-05-08T01:27:48.722Z,1.80
2023-05-08T01:30:34.902Z,2.25
2023-05-08T01:33:07.621Z,1.60
2023-05-08T01:35:38.035Z,2.17
2023-05-08T01:38:09.724Z,2.92
2023-05-08T01:40:42.715Z,1.50
2023-05-08T01:43:14.761Z,1.80
2023-05-08T01:45:46.902Z,1.80
2023-05-08T01:48:19.495Z,1.77
2023-05-08T01:50:49.166Z,1.35
2023-05-08T01:53:21.298Z,2.00
2023-05-08T01:55:51.834Z,1.70
2023-05-08T01:58:20.850Z,1.75
2023-05-08T02:00:50.051Z,2.55
2023-05-08T02:03:20.997Z,1.48
2023-05-08T02:05:50.519Z,1.50
2023-05-08T02:08:19.854Z,1.90
2023-05-08T02:10:48.905Z,2.08
2023-05-08T02:13:19.196Z,2.05
2023-05-08T02:15:49.315Z,2.42
2023-05-08T02:18:20.508Z,1.77
2023-05-08T02:20:50.970Z,1.52
2023-05-08T02:23:19.780Z,1.83
2023-05-08T02:25:48.953Z,1.70
2023-05-08T02:28:18.241Z,1.70
2023-05-08T02:30:46.890Z,1.30
2023-05-08T02:33:15.575Z,2.08
2023-05-08T02:35:45.522Z,1.20
2023-05-08T02:38:17.081Z,1.65
2023-05-08T02:40:47.805Z,1.92
2023-05-08T02:43:16.166Z,1.30
2023-05-08T02:45:47.590Z,1.33
2023-05-08T02:48:18.634Z,1.50
2023-05-08T02:50:49.463Z,2.33
2023-05-08T02:53:21.303Z,1.60
2023-05-08T02:55:51.190Z,1.38
2023-05-08T02:58:22.218Z,1.95
2023-05-08T03:00:54.761Z,1.60
2023-05-08T03:03:24.886Z,1.45
2023-05-08T03:05:54.352Z,1.80
2023-05-08T03:08:26.816Z,1.45
2023-05-08T03:10:57.284Z,2.03
2023-05-08T03:13:26.202Z,1.38
2023-05-08T03:15:56.560Z,1.92
2023-05-08T03:18:35.273Z,1.58
2023-05-08T03:21:04.093Z,1.55
2023-05-08T03:23:35.623Z,1.58
2023-05-08T03:26:04.880Z,1.40
2023-05-08T03:28:33.587Z,2.03
2023-05-08T03:31:02.825Z,1.83
2023-05-08T03:33:33.249Z,1.60
2023-05-08T03:36:01.886Z,1.88
2023-05-08T03:38:30.191Z,1.27
2023-05-08T03:41:00.985Z,1.58
2023-05-08T03:43:29.824Z,2.22
2023-05-08T03:45:58.410Z,2.03
2023-05-08T03:48:27.098Z,1.52
2023-05-08T03:50:55.339Z,1.42
2023-05-08T03:53:23.800Z,1.50
2023-05-08T03:55:52.074Z,1.35
2023-05-08T03:58:26.374Z,1.60
2023-05-08T04:01:00.216Z,1.40
2023-05-08T04:03:34.189Z,1.85
2023-05-08T04:06:04.861Z,1.13
2023-05-08T04:08:35.382Z,1.90
2023-05-08T04:11:07.188Z,1.33
2023-05-08T04:13:39.030Z,2.13
2023-05-08T04:16:08.541Z,1.55
2023-05-08T04:18:38.846Z,1.25
2023-05-08T04:21:10.243Z,1.30
2023-05-08T04:23:40.659Z,2.10
2023-05-08T04:26:09.713Z,1.17
2023-05-08T04:28:39.437Z,1.63
2023-05-08T04:31:08.567Z,1.83
2023-05-08T04:33:37.104Z,2.35
2023-05-08T04:36:05.663Z,1.63
2023-05-08T04:38:37.788Z,1.25
2023-05-08T04:41:06.327Z,2.38
2023-05-08T04:43:34.805Z,2.28
2023-05-08T04:46:06.173Z,1.45
2023-05-08T04:48:34.559Z,1.80
2023-05-08T04:51:02.852Z,1.15
2023-05-08T04:53:31.172Z,1.67
2023-05-08T04:55:59.486Z,1.52
2023-05-08T04:58:28.943Z,1.50
2023-05-08T05:00:57.336Z,1.73
2023-05-08T05:03:27.037Z,1.70
2023-05-08T05:05:59.809Z,1.90
2023-05-08T05:08:28.651Z,1.83
2023-05-08T05:10:56.947Z,1.60
2023-05-08T05:13:25.328Z,1.45
2023-05-08T05:15:54.449Z,1.10
2023-05-08T05:18:23.021Z,1.33
2023-05-08T05:20:52.667Z,1.92
2023-05-08T05:23:20.957Z,1.77
2023-05-08T05:25:49.241Z,1.65
2023-05-08T05:28:17.639Z,1.75
2023-05-08T05:30:48.313Z,2.35
2023-05-08T05:33:16.688Z,1.48
2023-05-08T05:35:45.002Z,1.60
2023-05-08T05:38:14.670Z,1.95
2023-05-08T05:40:43.101Z,1.73
2023-05-08T05:43:11.444Z,1.60
2023-05-08T05:45:40.146Z,2.35
2023-05-08T05:48:08.599Z,2.33
2023-05-08T05:50:37.938Z,1.98
2023-05-08T05:53:06.272Z,2.53
2023-05-08T05:55:36.061Z,1.27
2023-05-08T05:58:04.403Z,1.65
2023-05-08T06:00:32.974Z,1.58
2023-05-08T06:03:02.500Z,1.63
2023-05-08T06:05:30.975Z,1.58
2023-05-08T06:07:59.257Z,2.20
2023-05-08T06:10:27.867Z,1.30
2023-05-08T06:12:57.869Z,1.95
2023-05-08T06:15:26.192Z,1.58
2023-05-08T06:17:54.690Z,1.55
2023-05-08T06:20:24.469Z,1.80
2023-05-08T06:22:54.616Z,2.20
2023-05-08T06:25:22.956Z,1.63
2023-05-08T06:27:51.314Z,1.25
2023-05-08T06:30:21.029Z,1.30
2023-05-08T06:32:49.373Z,1.98
2023-05-08T06:35:19.494Z,1.48
2023-05-08T06:37:48.092Z,1.50
2023-05-08T06:40:16.514Z,1.95
2023-05-08T06:42:44.903Z,2.03
2023-05-08T06:45:13.282Z,1.88
2023-05-08T06:47:43.265Z,1.60
2023-05-08T06:50:11.903Z,1.80
2023-05-08T06:52:40.570Z,1.80
2023-05-08T06:55:09.529Z,1.77
2023-05-08T06:57:38.044Z,1.98
2023-05-08T07:00:06.816Z,2.25
2023-05-08T07:02:35.274Z,1.92
2023-05-08T07:05:05.355Z,2.20
2023-05-08T07:07:33.755Z,1.73
2023-05-08T07:10:02.077Z,1.65
2023-05-08T07:12:30.401Z,2.17
2023-05-08T07:14:58.713Z,1.92
2023-05-08T07:17:27.545Z,1.73
2023-05-08T07:19:56.039Z,1.15
2023-05-08T07:22:25.750Z,1.80
2023-05-08T07:24:54.110Z,1.45
2023-05-08T07:27:22.395Z,2.03
2023-05-08T07:29:50.690Z,1.98
2023-05-08T07:32:19.048Z,2.28
2023-05-08T07:34:47.348Z,2.25
2023-05-08T07:37:15.798Z,2.53
2023-05-08T07:39:47.637Z,2.05
2023-05-08T07:42:18.213Z,2.28
2023-05-08T07:44:54.269Z,1.48
2023-05-08T07:47:23.418Z,1.58
2023-05-08T07:49:51.725Z,1.63
2023-05-08T07:52:20.105Z,1.83
2023-05-08T07:54:49.764Z,1.65
2023-05-08T07:57:18.007Z,2.22
2023-05-08T07:59:46.324Z,1.85
2023-05-08T08:02:14.743Z,2.13
2023-05-08T08:04:43.380Z,2.20
2023-05-08T08:07:11.722Z,1.58
2023-05-08T08:09:40.017Z,2.00
2023-05-08T08:12:09.750Z,2.03
2023-05-08T08:14:38.069Z,1.55
2023-05-08T08:17:06.495Z,2.17
2023-05-08T08:19:34.846Z,1.58
2023-05-08T08:22:03.157Z,2.35
2023-05-08T08:24:32.028Z,2.22
2023-05-08T08:27:00.399Z,1.90
2023-05-08T08:29:30.271Z,2.30
2023-05-08T08:31:58.812Z,2.33
2023-05-08T08:34:27.146Z,2.03
2023-05-08T08:36:55.473Z,2.22
2023-05-08T08:39:23.876Z,1.88
2023-05-08T08:41:52.312Z,2.25
2023-05-08T08:44:20.686Z,2.22
2023-05-08T08:46:52.714Z,2.22
2023-05-08T08:49:26.781Z,1.80
2023-05-08T08:51:57.387Z,2.00
2023-05-08T08:54:26.718Z,2.42
2023-05-08T08:56:55.899Z,2.17
2023-05-08T08:59:24.980Z,1.77
2023-05-08T09:01:56.988Z,2.25
2023-05-08T09:04:27.314Z,1.75
2023-05-08T09:06:56.291Z,2.03
2023-05-08T09:09:24.908Z,2.25
2023-05-08T09:11:54.416Z,2.67
2023-05-08T09:14:24.563Z,2.47
2023-05-08T09:16:52.921Z,2.25
2023-05-08T09:19:26.226Z,2.05
2023-05-08T09:21:56.502Z,2.42
2023-05-08T09:24:24.840Z,2.53
2023-05-08T09:26:53.116Z,2.50
2023-05-08T09:29:22.529Z,2.55
2023-05-08T09:31:51.653Z,2.28
2023-05-08T09:34:28.543Z,1.98
2023-05-08T09:36:57.248Z,2.70
2023-05-08T09:39:26.470Z,3.13
2023-05-08T09:42:01.321Z,3.80
2023-05-08T09:44:29.847Z,2.38
2023-05-08T09:47:18.834Z,2.22
2023-05-08T09:50:00.977Z,2.38
2023-05-08T09:52:29.664Z,2.35
2023-05-08T09:55:01.903Z,2.63
2023-05-08T09:57:31.576Z,2.35
2023-05-08T10:00:05.025Z,2.38
2023-05-08T10:02:33.528Z,2.35
2023-05-08T10:05:03.336Z,2.17
2023-05-08T10:07:32.708Z,2.85
2023-05-08T10:10:01.885Z,2.40
2023-05-08T10:12:30.612Z,2.88
2023-05-08T10:14:59.258Z,1.88
2023-05-08T10:17:28.963Z,3.00
2023-05-08T10:20:00.515Z,3.13
2023-05-08T10:22:31.240Z,2.88
2023-05-08T10:25:00.777Z,2.92
2023-05-08T10:27:32.860Z,3.58
2023-05-08T10:30:04.134Z,2.45
2023-05-08T10:32:37.743Z,3.25
2023-05-08T10:35:08.211Z,2.85
2023-05-08T10:37:38.595Z,3.97
2023-05-08T10:40:07.853Z,2.72
2023-05-08T10:42:36.455Z,3.00
2023-05-08T10:45:05.378Z,2.72
2023-05-08T10:47:38.267Z,3.53
2023-05-08T10:50:12.738Z,2.88
2023-05-08T10:52:45.010Z,2.80
2023-05-08T10:55:21.881Z,3.55
2023-05-08T10:58:03.934Z,2.85
2023-05-08T11:00:33.969Z,3.17
2023-05-08T11:03:16.884Z,2.70
2023-05-08T11:05:52.772Z,3.13
2023-05-08T11:08:24.610Z,2.63
2023-05-08T11:10:54.012Z,3.78
2023-05-08T11:13:29.397Z,3.35
2023-05-08T11:15:57.779Z,2.90
2023-05-08T11:18:28.093Z,2.78
2023-05-08T11:23:31.284Z,3.28
2023-05-08T11:26:03.671Z,3.53
2023-05-08T11:28:34.317Z,3.22
2023-05-08T11:31:04.902Z,3.30
2023-05-08T11:33:33.983Z,2.92
2023-05-08T11:36:02.901Z,3.30
2023-05-08T11:38:38.066Z,3.45
2023-05-08T11:41:07.712Z,3.10
2023-05-08T11:43:53.924Z,2.85
2023-05-08T11:46:22.687Z,2.85
2023-05-08T11:48:51.080Z,2.90
2023-05-08T11:51:20.659Z,3.70
2023-05-08T11:53:50.426Z,3.03
2023-05-08T11:56:19.122Z,2.95
2023-05-08T11:58:47.445Z,3.53
2023-05-08T12:01:19.030Z,3.30
2023-05-08T12:03:47.540Z,3.40
2023-05-08T12:06:16.161Z,3.13
2023-05-08T12:08:44.492Z,2.80
2023-05-08T12:11:14.217Z,3.47
2023-05-08T12:13:42.546Z,3.50
2023-05-08T12:16:12.727Z,3.20
2023-05-08T12:18:42.161Z,3.10
2023-05-08T12:21:10.614Z,3.40
2023-05-08T12:23:39.775Z,3.20
2023-05-08T12:26:09.965Z,3.22
2023-05-08T12:28:39.958Z,2.80
2023-05-08T12:31:08.750Z,4.03
2023-05-08T12:33:38.664Z,3.00
2023-05-08T12:36:07.818Z,2.85
2023-05-08T12:38:36.195Z,3.75
2023-05-08T12:41:07.055Z,4.25
2023-05-08T12:43:36.172Z,3.28
2023-05-08T12:46:06.480Z,3.42
2023-05-08T12:48:34.823Z,2.95
2023-05-08T12:51:04.269Z,3.28
2023-05-08T12:53:33.788Z,2.80
2023-05-08T12:56:03.817Z,3.85
2023-05-08T12:58:33.440Z,3.92
2023-05-08T13:01:07.464Z,3.17
2023-05-08T13:03:35.870Z,3.80
2023-05-08T13:06:04.305Z,4.35
2023-05-08T13:08:33.935Z,3.75
2023-05-08T13:11:02.969Z,3.05
2023-05-08T13:13:32.587Z,2.75
2023-05-08T13:16:03.817Z,2.70
2023-05-08T13:18:33.861Z,2.97
2023-05-08T13:21:02.886Z,2.78
2023-05-08T13:23:31.397Z,3.05
2023-05-08T13:25:59.781Z,2.47
2023-05-08T13:28:28.098Z,3.53
2023-05-08T13:30:56.426Z,2.75
2023-05-08T13:33:24.758Z,2.95
2023-05-08T13:35:55.455Z,2.95
2023-05-08T13:38:23.747Z,2.70
2023-05-08T13:40:52.195Z,1.88
2023-05-08T13:43:20.517Z,3.25
2023-05-08T13:45:48.944Z,2.92
2023-05-08T13:48:17.340Z,2.25
2023-05-08T13:50:45.718Z,1.90
2023-05-08T13:53:15.403Z,2.33
2023-05-08T13:55:43.695Z,2.20
2023-05-08T13:58:12.119Z,2.63
2023-05-08T14:00:40.557Z,2.17
2023-05-08T14:03:09.178Z,3.55
2023-05-08T14:05:37.543Z,3.05
2023-05-08T14:08:06.060Z,2.72
2023-05-08T14:10:35.792Z,2.88
2023-05-08T14:13:04.192Z,3.40
2023-05-08T14:15:37.363Z,2.63
2023-05-08T14:18:06.397Z,2.63
2023-05-08T14:20:34.829Z,2.47
2023-05-08T14:23:03.123Z,2.50
2023-05-08T14:25:32.193Z,2.85
2023-05-08T14:28:02.034Z,3.42
2023-05-08T14:30:30.464Z,3.35
2023-05-08T14:32:58.947Z,2.70
2023-05-08T14:35:27.400Z,3.75
2023-05-08T14:37:55.761Z,3.03
2023-05-08T14:40:24.730Z,2.75
2023-05-08T14:42:53.115Z,3.20
2023-05-08T14:45:23.031Z,2.75
2023-05-08T14:47:51.457Z,3.03
2023-05-08T14:50:19.960Z,3.10
2023-05-08T14:52:48.291Z,3.00
2023-05-08T14:55:20.944Z,3.08
2023-05-08T14:57:49.577Z,3.15
2023-05-08T15:00:18.649Z,2.80
2023-05-08T15:02:48.646Z,3.17
2023-05-08T15:05:20.076Z,2.75
2023-05-08T15:07:50.032Z,2.97
2023-05-08T15:10:18.591Z,2.83
2023-05-08T15:12:47.121Z,3.20
2023-05-08T15:15:15.851Z,2.70
2023-05-08T15:17:44.423Z,3.15
2023-05-08T15:20:14.309Z,2.63
2023-05-08T15:22:42.641Z,3.45
2023-05-08T15:25:11.768Z,3.58
2023-05-08T15:27:41.303Z,3.75
2023-05-08T15:30:10.223Z,2.42
2023-05-08T15:32:40.210Z,2.60
2023-05-08T15:35:08.878Z,3.08
2023-05-08T15:37:39.768Z,3.05
2023-05-08T15:40:08.788Z,2.50
2023-05-08T15:42:37.164Z,3.30
2023-05-08T15:45:05.720Z,2.70
2023-05-08T15:47:34.097Z,2.55
2023-05-08T15:50:02.527Z,2.83
2023-05-08T15:52:30.880Z,2.50
2023-05-08T15:55:00.802Z,2.70
2023-05-08T15:57:29.114Z,3.00
2023-05-08T15:59:57.415Z,2.70
2023-05-08T16:02:25.965Z,2.97
2023-05-08T16:04:54.376Z,2.95
2023-05-08T16:07:22.741Z,2.92
2023-05-08T16:09:51.089Z,2.85
2023-05-08T16:12:20.820Z,2.78
2023-05-08T16:14:49.127Z,2.53
2023-05-08T16:17:17.793Z,2.80
2023-05-08T16:19:46.109Z,3.33
2023-05-08T16:22:14.447Z,3.08
2023-05-08T16:24:42.805Z,4.10
2023-05-08T16:27:11.348Z,2.13
2023-05-08T16:29:41.043Z,3.75
2023-05-08T16:32:09.474Z,2.60
2023-05-08T16:34:38.458Z,2.97
2023-05-08T16:37:06.846Z,3.30
2023-05-08T16:39:35.118Z,3.08
2023-05-08T16:42:03.422Z,3.80
2023-05-08T16:44:31.721Z,3.70
2023-05-08T16:47:01.374Z,2.67
2023-05-08T16:49:29.731Z,2.67
2023-05-08T16:51:59.022Z,3.65
2023-05-08T16:54:27.318Z,3.08
2023-05-08T16:56:56.061Z,3.05
2023-05-08T16:59:24.481Z,2.75
2023-05-08T17:01:53.260Z,2.72
2023-05-08T17:04:22.963Z,2.30
2023-05-08T17:06:51.256Z,3.60
2023-05-08T17:09:19.607Z,2.92
2023-05-08T17:11:47.934Z,2.25
2023-05-08T17:14:16.251Z,4.10
2023-05-08T17:16:44.694Z,3.33
2023-05-08T17:19:13.087Z,3.20
2023-05-08T17:21:42.778Z,2.78
2023-05-08T17:24:11.150Z,3.30
2023-05-08T17:26:39.483Z,3.05
2023-05-08T17:29:07.824Z,1.88
2023-05-08T17:31:36.138Z,2.28
2023-05-08T17:34:04.560Z,2.53
2023-05-08T17:36:32.921Z,2.17
2023-05-08T17:39:02.599Z,2.60
2023-05-08T17:41:30.878Z,3.45
2023-05-08T17:43:59.172Z,2.50
2023-05-08T17:46:27.517Z,3.10
2023-05-08T17:48:55.884Z,3.00
2023-05-08T17:51:24.241Z,3.13
2023-05-08T17:53:53.127Z,3.50
2023-05-08T17:56:23.393Z,2.40
2023-05-08T17:58:52.305Z,3.45
2023-05-08T18:01:20.812Z,3.00
2023-05-08T18:03:49.375Z,3.22
2023-05-08T18:06:18.048Z,3.92
2023-05-08T18:08:46.710Z,3.17
2023-05-08T18:11:18.436Z,2.60
2023-05-08T18:13:48.241Z,2.60
2023-05-08T18:16:17.163Z,3.25
2023-05-08T18:18:45.706Z,2.63
2023-05-08T18:21:14.109Z,2.70
2023-05-08T18:23:42.551Z,2.92
2023-05-08T18:26:14.655Z,2.92
2023-05-08T18:28:43.028Z,2.10
2023-05-08T18:31:13.457Z,2.63
2023-05-08T18:33:41.782Z,2.75
2023-05-08T18:36:10.158Z,2.88
2023-05-08T18:38:38.544Z,3.17
2023-05-08T18:41:07.066Z,3.05
2023-05-08T18:43:35.453Z,2.85
2023-05-08T18:46:09.224Z,2.75
2023-05-08T18:48:39.070Z,2.75
2023-05-08T18:51:07.393Z,2.83
2023-05-08T18:53:38.297Z,3.38
2023-05-08T18:56:07.237Z,2.65
2023-05-08T18:58:35.574Z,2.97
2023-05-08T19:01:03.923Z,2.85
2023-05-08T19:03:32.426Z,2.47
2023-05-08T19:06:02.207Z,2.10
2023-05-08T19:08:30.772Z,3.10
2023-05-08T19:10:59.138Z,2.42
2023-05-08T19:13:27.660Z,3.35
2023-05-08T19:15:56.303Z,2.47
2023-05-08T19:18:24.691Z,3.78
2023-05-08T19:20:53.035Z,3.05
2023-05-08T19:23:22.764Z,3.72
2023-05-08T19:25:52.821Z,2.30
2023-05-08T19:28:21.209Z,2.80
2023-05-08T19:30:49.575Z,3.17
2023-05-08T19:33:20.500Z,2.47
2023-05-08T19:35:48.966Z,2.45
2023-05-08T19:38:17.293Z,3.08
2023-05-08T19:40:56.671Z,3.50
2023-05-08T19:43:26.247Z,2.03
2023-05-08T19:45:54.657Z,2.70
2023-05-08T19:48:23.063Z,3.33
2023-05-08T19:50:54.684Z,2.20
2023-05-08T19:53:23.484Z,3.35
2023-05-08T19:55:53.221Z,2.85
2023-05-08T19:58:21.787Z,2.78
2023-05-08T20:00:51.955Z,2.78
2023-05-08T20:03:20.689Z,2.80
2023-05-08T20:05:49.263Z,2.28
2023-05-08T20:08:17.581Z,2.70
2023-05-08T20:10:46.085Z,2.75
2023-05-08T20:13:15.827Z,3.35
2023-05-08T20:15:44.202Z,2.60
2023-05-08T20:18:12.567Z,2.70
2023-05-08T20:20:40.854Z,1.98
2023-05-08T20:23:09.168Z,2.95
2023-05-08T20:25:37.537Z,2.92
2023-05-08T20:28:05.809Z,2.00
2023-05-08T20:30:35.567Z,2.15
2023-05-08T20:33:05.133Z,2.50
2023-05-08T20:35:33.794Z,2.55
2023-05-08T20:38:02.130Z,2.40
2023-05-08T20:40:30.477Z,2.67
2023-05-08T20:42:58.790Z,2.50
2023-05-08T20:45:27.091Z,2.42
2023-05-08T20:47:56.861Z,2.83
2023-05-08T20:50:25.214Z,2.03
2023-05-08T20:52:53.615Z,2.55
2023-05-08T20:55:22.138Z,2.85
2023-05-08T20:57:50.465Z,3.67
2023-05-08T21:00:19.023Z,2.53
2023-05-08T21:02:47.347Z,2.85
2023-05-08T21:05:17.147Z,2.35
2023-05-08T21:07:45.444Z,2.10
2023-05-08T21:10:14.309Z,2.42
2023-05-08T21:12:44.546Z,2.30
2023-05-08T21:15:13.217Z,1.92
2023-05-08T21:17:41.823Z,2.85
2023-05-08T21:20:10.852Z,2.53
2023-05-08T21:22:40.564Z,3.45
2023-05-08T21:25:09.153Z,2.33
2023-05-08T21:27:37.437Z,2.42
2023-05-08T21:30:06.063Z,2.45
2023-05-08T21:32:34.403Z,3.10
2023-05-08T21:35:02.741Z,2.30
2023-05-08T21:37:31.557Z,2.33
2023-05-08T21:40:01.252Z,2.72
2023-05-08T21:42:29.511Z,2.90
2023-05-08T21:44:58.216Z,2.42
2023-05-08T21:47:28.030Z,2.53
2023-05-08T21:49:57.259Z,2.67
2023-05-08T21:52:26.116Z,3.22
2023-05-08T21:54:54.379Z,2.70
2023-05-08T21:57:24.070Z,2.25
2023-05-08T21:59:52.367Z,2.70
2023-05-08T22:02:21.034Z,2.53
2023-05-08T22:04:49.385Z,2.67
2023-05-08T22:07:19.147Z,3.03
2023-05-08T22:09:47.463Z,2.67
2023-05-08T22:12:15.784Z,2.65
2023-05-08T22:14:45.484Z,2.65
2023-05-08T22:17:13.767Z,2.33
2023-05-08T22:19:42.077Z,3.58
2023-05-08T22:22:10.343Z,2.72
2023-05-08T22:24:38.657Z,2.97
2023-05-08T22:27:06.970Z,2.75
2023-05-08T22:29:35.251Z,2.75
2023-05-08T22:32:05.025Z,2.90
2023-05-08T22:34:33.493Z,3.00
2023-05-08T22:37:01.785Z,2.70
2023-05-08T22:39:30.157Z,2.78
2023-05-08T22:41:58.513Z,1.80
2023-05-08T22:44:26.945Z,2.45
2023-05-08T22:46:55.315Z,2.35
2023-05-08T22:49:25.044Z,2.53
2023-05-08T22:51:53.356Z,3.55
2023-05-08T22:54:21.677Z,2.78
2023-05-08T22:56:49.958Z,2.70
2023-05-08T22:59:18.279Z,2.20
2023-05-08T23:01:46.616Z,3.65
2023-05-08T23:04:14.956Z,2.38
2023-05-08T23:06:44.644Z,2.95
2023-05-08T23:09:12.957Z,2.60
2023-05-08T23:11:41.229Z,2.75
2023-05-08T23:14:09.521Z,2.67
2023-05-08T23:16:37.886Z,3.05
2023-05-08T23:19:07.328Z,2.10
2023-05-08T23:21:35.658Z,2.50
2023-05-08T23:24:05.793Z,2.95
2023-05-08T23:26:34.090Z,2.42
2023-05-08T23:29:02.577Z,2.25
2023-05-08T23:31:30.973Z,2.00
2023-05-08T23:33:59.328Z,2.08
2023-05-08T23:36:27.654Z,2.20
2023-05-08T23:38:56.118Z,2.05
2023-05-08T23:41:26.592Z,2.40
2023-05-08T23:43:54.886Z,3.00
2023-05-08T23:46:23.374Z,2.92
2023-05-08T23:48:51.684Z,2.35
2023-05-08T23:51:20.032Z,2.58
2023-05-08T23:53:49.782Z,2.72
2023-05-08T23:56:18.094Z,2.45
2023-05-08T23:58:47.713Z,3.30
